Phuket, Thailand

4:29 PM ICT on December 08, 2016 (GMT +0700)
Phuket International | | Change Station

Elev 30 ft 8.11 °N, 98.32 °E | Updated 29 minutes ago

Partly Cloudy
Partly Cloudy
90 °F
Feels Like 98 °F
N
9
Wind Variable Wind from East

Today
High -- | Low -- °F
--% Chance of Precip.
Yesterday
High -- | Low -- °F
Precip. -- in
Pressure 29.71 in
Visibility 5.6 miles
Clouds Few 1800 ft
Heat Index 98 °F
Dew Point 73 °F
Humidity 59%
Rainfall 0.00 in
Snow Depth Not available.
6:28 AM 6:08 PM
First Quarter, 61% visible
METAR VTSP 080900Z 09008KT 070V130 9000 FEW018 32/23 Q1006 NOSIG
Pressure 29.71 in
Visibility 5.6 miles
Clouds Few 1800 ft
Heat Index 98 °F
Dew Point 73 °F
Humidity 59%
Rainfall 0.00 in
Snow Depth Not available.
6:28 AM 6:08 PM
First Quarter, 61% visible
METAR VTSP 080900Z 09008KT 070V130 9000 FEW018 32/23 Q1006 NOSIG

10-Day Weather Forecast

No radar image for this location.
×

Almanac

Astronomy

Dec. 08, 2016 Rise Set
Actual Time
Civil Twilight
Nautical Twilight
Astronomical Twilight
Moon
Length of Visible Light
Length of Day
Tomorrow will be .
, % of the Moon is Illuminated

Today's Extremes

Country Highs Country Lows

Community

WunderPhotos

Upload Photos

1,956,259 photos uploaded!

WunderBlog® & News

Nearby

Air Quality

  Air Quality AQ Index Pollutant
Not available.

Snow Depth

Station Depth Elevation

Earthquake Activity

City Distance Mag. Time & Date
Minimum magnitude displayed is 2.5.

Coastal Water Temperatures

Place Temperature

Stations

Nearby Weather Stations

Station Location Temp. Windchill Dew Point Humidity Wind Precip. Elev Updated Type